Terminal Aerodrome Forecast
Issued by NWS Grand Junction, CO

Home | Current Version | Previous Version | Text Only | Print | Product List | Glossary On
Versions: 1 2 3 4 5 6 7 8 9 10 11 12 13
000
FTUS45 KGJT 260544
TAFGJT
TAF
KGJT 260544Z 2606/2706 04009KT P6SM VCSH BKN070
     FM260700 10009KT P6SM VCSH BKN070
     FM261200 11011KT P6SM SCT090
     FM261600 16013G22KT P6SM FEW110
     FM262000 23018G30KT P6SM SCT150
     FM270400 12010KT P6SM BKN120=

USA.gov is the U.S. government's official web portal to all federal, state and local government web resources and services.